Time;durP1;ratioP1;P1;durP2;ratioP2;P2;SDS_P1;SDS_P2;PMS_P1;PMS_P2;Temp;Humidity;BMP_temperature;BMP_pressure;BME280_temperature;BME280_humidity;BME280_pressure;Samples;Min_cycle;Max_cycle;Signal;HPM_P1;HPM_P2
2022/08/28 00:01:05;;;;;;;21.30;16.30;;;;;;;17.86;100.00;98059.50;5106206;28;20284;-66
2022/08/28 00:03:32;;;;;;;23.97;17.23;;;;;;;18.04;100.00;98058.50;5107885;28;20254;-66
2022/08/28 00:05:59;;;;;;;20.60;15.60;;;;;;;18.09;100.00;98056.19;5110030;28;20229;-66
2022/08/28 00:08:27;;;;;;;16.73;13.83;;;;;;;18.14;100.00;98050.38;5108937;28;20226;-66
2022/08/28 00:10:54;;;;;;;19.23;14.97;;;;;;;18.19;100.00;98054.28;5106148;28;20323;-66
2022/08/28 00:13:24;;;;;;;18.27;14.73;;;;;;;18.23;100.00;98066.34;5107604;28;20227;-66
2022/08/28 00:15:54;;;;;;;18.40;14.87;;;;;;;18.24;100.00;98060.00;5109961;28;20234;-66
2022/08/28 00:18:21;;;;;;;24.73;17.17;;;;;;;18.28;100.00;98064.03;5108170;28;20232;-66
2022/08/28 00:20:49;;;;;;;21.53;17.27;;;;;;;18.26;100.00;98070.53;5098703;28;20246;-66
2022/08/28 00:23:16;;;;;;;20.37;16.87;;;;;;;18.26;100.00;98070.53;5106319;28;20223;-66
2022/08/28 00:25:43;;;;;;;21.30;16.70;;;;;;;18.28;100.00;98072.06;5110015;28;20222;-66
2022/08/28 00:28:10;;;;;;;22.87;17.97;;;;;;;18.32;100.00;98062.78;5108178;28;20221;-66
2022/08/28 00:30:41;;;;;;;22.83;16.63;;;;;;;18.36;100.00;98064.13;5104738;28;20243;-66
2022/08/28 00:33:11;;;;;;;22.40;17.13;;;;;;;18.37;100.00;98063.16;5108239;28;20280;-66
2022/08/28 00:35:39;;;;;;;20.70;16.97;;;;;;;18.39;100.00;98069.19;5109498;28;20228;-66
2022/08/28 00:38:07;;;;;;;23.30;17.60;;;;;;;18.38;100.00;98072.88;5107113;28;20228;-66
2022/08/28 00:40:34;;;;;;;23.07;18.30;;;;;;;18.39;100.00;98074.53;5105669;28;20237;-66
2022/08/28 00:43:02;;;;;;;22.50;17.03;;;;;;;18.40;100.00;98070.88;5108532;28;20579;-66
2022/08/28 00:45:30;;;;;;;22.70;17.90;;;;;;;18.44;100.00;98071.38;5109419;28;20274;-65
2022/08/28 00:47:58;;;;;;;23.63;18.80;;;;;;;18.46;100.00;98064.88;5106943;28;20588;-66
2022/08/28 00:52:04;;;;;;;22.07;17.40;;;;;;;18.46;100.00;98064.88;5103825;28;20308;-66
2022/08/28 00:53:16;;;;;;;23.10;18.13;;;;;;;18.49;100.00;98064.59;5097087;28;20256;-66
2022/08/28 00:55:43;;;;;;;22.03;17.80;;;;;;;18.48;100.00;98073.59;5107782;28;20279;-66
2022/08/28 00:58:11;;;;;;;21.27;17.77;;;;;;;18.44;100.00;98066.03;5105707;28;20316;-66
2022/08/28 01:00:40;;;;;;;22.53;16.57;;;;;;;18.39;100.00;98063.84;5107822;28;20222;-66
2022/08/28 01:03:08;;;;;;;21.97;17.50;;;;;;;18.36;100.00;98058.78;5109330;28;20225;-67
2022/08/28 01:05:37;;;;;;;20.40;16.70;;;;;;;18.33;100.00;98051.06;5107190;28;20230;-68
2022/08/28 01:08:04;;;;;;;22.53;17.43;;;;;;;18.32;100.00;98059.25;5105599;28;20227;-66
2022/08/28 01:10:34;;;;;;;23.10;18.30;;;;;;;18.29;100.00;98051.53;5112292;28;20321;-66
2022/08/28 01:13:02;;;;;;;25.23;19.00;;;;;;;18.32;100.00;98062.78;5113401;28;20700;-68
2022/08/28 01:15:34;;;;;;;24.93;17.93;;;;;;;18.32;100.00;98062.78;5108865;28;20266;-67
2022/08/28 01:18:05;;;;;;;26.53;18.77;;;;;;;18.38;100.00;98061.31;5109627;28;20233;-66
2022/08/28 01:20:36;;;;;;;22.47;17.47;;;;;;;18.33;100.00;98063.59;5096348;28;20275;-67
2022/08/28 01:23:09;;;;;;;25.07;17.83;;;;;;;18.39;100.00;98065.66;5113071;28;20286;-68
2022/08/28 01:25:38;;;;;;;25.20;19.00;;;;;;;18.40;100.00;98059.34;5109237;28;20280;-67
2022/08/28 01:28:07;;;;;;;25.60;19.23;;;;;;;18.38;100.00;98062.16;5110758;28;20226;-67
2022/08/28 01:30:34;;;;;;;26.00;19.87;;;;;;;18.42;100.00;98058.16;5112956;28;20237;-67
2022/08/28 01:33:01;;;;;;;29.30;19.47;;;;;;;18.42;100.00;98060.84;5111758;28;20680;-67
2022/08/28 01:35:31;;;;;;;23.80;17.77;;;;;;;18.44;100.00;98066.03;5109166;28;20245;-67
2022/08/28 01:37:58;;;;;;;25.03;18.43;;;;;;;18.45;100.00;98063.22;5111023;28;20223;-67
2022/08/28 01:40:29;;;;;;;23.00;18.23;;;;;;;18.38;100.00;98064.84;5112896;28;20540;-67
2022/08/28 01:43:07;;;;;;;24.57;19.03;;;;;;;18.28;100.00;98056.03;5109314;28;20226;-67
2022/08/28 01:45:36;;;;;;;22.23;17.67;;;;;;;18.16;100.00;98057.25;5108984;28;20222;-67
2022/08/28 01:48:04;;;;;;;22.73;17.27;;;;;;;18.04;100.00;98058.50;5095611;28;20229;-67
2022/08/28 01:50:32;;;;;;;24.30;18.30;;;;;;;18.00;100.00;98059.81;5112572;28;20639;-67
2022/08/28 01:52:59;;;;;;;25.83;18.50;;;;;;;17.98;100.00;98056.44;5109004;28;20254;-67
2022/08/28 01:55:25;;;;;;;23.80;17.57;;;;;;;17.96;100.00;98050.41;5108692;28;20694;-67
2022/08/28 01:57:54;;;;;;;28.97;18.93;;;;;;;17.96;100.00;98061.09;5095205;28;20371;-67
2022/08/28 02:00:25;;;;;;;23.80;17.47;;;;;;;17.92;100.00;98059.72;5112428;28;20346;-67
2022/08/28 02:02:52;;;;;;;25.80;18.90;;;;;;;17.92;100.00;98054.38;5101171;28;20238;-67
2022/08/28 02:05:19;;;;;;;26.33;19.00;;;;;;;17.93;100.00;98058.72;5108979;28;20226;-67
2022/08/28 02:07:46;;;;;;;27.97;19.17;;;;;;;17.96;100.00;98055.75;5110526;28;20304;-67
2022/08/28 02:10:13;;;;;;;30.77;21.77;;;;;;;18.00;100.00;98059.81;5112220;28;20257;-67
2022/08/28 02:12:42;;;;;;;29.57;20.07;;;;;;;18.01;100.00;98065.97;5100620;28;20546;-67
2022/08/28 02:15:09;;;;;;;27.50;20.33;;;;;;;17.97;100.00;98065.47;5108591;28;20693;-67
2022/08/28 02:17:37;;;;;;;27.93;20.00;;;;;;;17.91;100.00;98067.91;5112232;28;20299;-67
2022/08/28 02:20:06;;;;;;;27.37;20.00;;;;;;;17.91;100.00;98068.75;5105081;28;20525;-67
2022/08/28 02:22:33;;;;;;;30.00;21.00;;;;;;;17.94;100.00;98063.09;5100991;28;20226;-67
2022/08/28 02:25:00;;;;;;;32.50;22.47;;;;;;;17.97;100.00;98062.78;5108646;28;20685;-67
2022/08/28 02:27:27;;;;;;;31.10;22.07;;;;;;;17.94;100.00;98057.75;5107331;28;20227;-67
2022/08/28 02:29:54;;;;;;;33.70;21.63;;;;;;;17.91;100.00;98059.91;5099203;28;20227;-67
2022/08/28 02:32:21;;;;;;;31.43;22.53;;;;;;;17.90;100.00;98064.38;5100285;28;20652;-67
2022/08/28 02:34:49;;;;;;;34.17;22.97;;;;;;;17.95;100.00;98056.75;5106374;28;20430;-67
2022/08/28 02:37:15;;;;;;;34.47;23.67;;;;;;;17.97;100.00;98062.78;5099115;28;20316;-67
2022/08/28 02:39:42;;;;;;;33.20;22.40;;;;;;;18.00;100.00;98062.50;5107404;28;20225;-67
2022/08/28 02:42:09;;;;;;;30.80;22.53;;;;;;;18.03;100.00;98067.50;5107925;28;20302;-67
2022/08/28 02:44:35;;;;;;;34.67;23.90;;;;;;;18.04;100.00;98068.38;5107728;28;20272;-67
2022/08/28 02:47:03;;;;;;;32.00;21.53;;;;;;;18.04;100.00;98071.88;5094171;28;20614;-67
2022/08/28 02:49:30;;;;;;;28.30;20.07;;;;;;;18.00;100.00;98066.97;5111553;28;20324;-67
2022/08/28 02:51:58;;;;;;;35.30;22.73;;;;;;;18.04;100.00;98066.50;5108061;28;20269;-67
2022/08/28 02:54:26;;;;;;;32.47;23.07;;;;;;;18.02;100.00;98067.66;5107552;28;20271;-67
2022/08/28 02:56:53;;;;;;;30.37;21.00;;;;;;;18.05;100.00;98064.69;5094002;28;20631;-67
2022/08/28 02:59:20;;;;;;;33.63;22.90;;;;;;;18.14;100.00;98069.97;5109514;28;20226;-67
2022/08/28 03:01:47;;;;;;;30.87;21.47;;;;;;;18.18;100.00;98066.00;5107879;28;20222;-67
2022/08/28 03:04:13;;;;;;;30.67;22.30;;;;;;;18.25;100.00;98066.19;5107473;28;20258;-67
2022/08/28 03:06:40;;;;;;;32.10;22.37;;;;;;;18.27;100.00;98067.72;5111185;28;20225;-67
2022/08/28 03:09:09;;;;;;;31.97;23.07;;;;;;;18.33;100.00;98069.81;5111165;28;20308;-67
2022/08/28 03:11:36;;;;;;;28.27;21.23;;;;;;;18.39;100.00;98073.69;5107773;28;20277;-67
2022/08/28 03:14:03;;;;;;;29.47;21.10;;;;;;;18.40;100.00;98078.91;5107264;28;20226;-67
2022/08/28 03:16:31;;;;;;;29.07;21.07;;;;;;;18.41;100.00;98074.41;5110935;28;20248;-67
2022/08/28 03:18:57;;;;;;;30.23;22.10;;;;;;;18.46;100.00;98075.59;5110824;28;20323;-67
2022/08/28 03:21:24;;;;;;;26.83;20.07;;;;;;;18.45;100.00;98079.28;5107697;28;20343;-67
2022/08/28 03:23:51;;;;;;;26.67;19.67;;;;;;;18.49;100.00;98080.66;5107095;28;20284;-67
2022/08/28 03:26:20;;;;;;;29.50;20.20;;;;;;;18.47;100.00;98076.44;5108604;28;20261;-67
2022/08/28 03:28:48;;;;;;;26.60;20.23;;;;;;;18.47;100.00;98073.78;5110718;28;20631;-67
2022/08/28 03:31:18;;;;;;;26.30;19.07;;;;;;;18.48;100.00;98073.59;5106587;28;20258;-67
2022/08/28 03:33:46;;;;;;;31.87;23.33;;;;;;;18.53;100.00;98082.00;5106673;28;20230;-67
2022/08/28 03:36:17;;;;;;;29.70;21.50;;;;;;;18.53;100.00;98076.66;5093569;28;20299;-67
2022/08/28 03:38:44;;;;;;;30.37;22.30;;;;;;;18.56;100.00;98079.03;5110548;28;20226;-67
2022/08/28 03:41:12;;;;;;;30.53;21.40;;;;;;;18.58;100.00;98085.06;5099149;28;20226;-67
2022/08/28 03:43:41;;;;;;;26.27;20.53;;;;;;;18.59;100.00;98086.72;5107145;28;20234;-67
2022/08/28 03:46:12;;;;;;;28.80;20.00;;;;;;;18.59;100.00;98092.06;5110460;28;20236;-67
2022/08/28 03:48:39;;;;;;;28.60;19.87;;;;;;;18.62;100.00;98086.44;5109657;28;20286;-67
2022/08/28 03:51:07;;;;;;;25.37;19.07;;;;;;;18.56;100.00;98087.06;5104881;28;20227;-67
2022/08/28 03:53:34;;;;;;;27.23;19.67;;;;;;;18.54;100.00;98081.00;5107348;28;20269;-67
2022/08/28 03:56:01;;;;;;;24.80;19.43;;;;;;;18.50;100.00;98076.97;5110405;28;20232;-67
2022/08/28 03:58:28;;;;;;;25.03;19.17;;;;;;;18.45;100.00;98084.63;5109832;28;20226;-67
2022/08/28 04:00:56;;;;;;;26.83;19.63;;;;;;;18.45;100.00;98083.78;5106357;28;20309;-67
2022/08/28 04:03:23;;;;;;;26.67;18.90;;;;;;;18.46;100.00;98085.47;5107280;28;20221;-67
2022/08/28 04:05:50;;;;;;;24.57;19.43;;;;;;;18.46;100.00;98088.97;5110021;28;20261;-67
2022/08/28 04:08:19;;;;;;;28.20;21.43;;;;;;;18.54;100.00;98091.69;5109701;28;20229;-67
2022/08/28 04:10:47;;;;;;;24.00;18.30;;;;;;;18.55;100.00;98096.09;5106247;28;20230;-67
2022/08/28 04:13:15;;;;;;;23.60;18.33;;;;;;;18.56;100.00;98086.19;5107205;28;20597;-67
2022/08/28 04:15:43;;;;;;;25.67;18.87;;;;;;;18.56;100.00;98089.72;5109841;28;20631;-67
2022/08/28 04:18:11;;;;;;;28.03;20.13;;;;;;;18.60;100.00;98093.75;5107578;28;20230;-67
2022/08/28 04:20:38;;;;;;;27.63;20.97;;;;;;;18.62;100.00;98097.13;5099543;28;20222;-67
2022/08/28 04:23:08;;;;;;;27.00;20.40;;;;;;;18.65;100.00;98102.16;5107234;28;20273;-67
2022/08/28 04:25:35;;;;;;;27.10;20.97;;;;;;;18.64;100.00;98089.78;5109756;28;20309;-67
2022/08/28 04:28:02;;;;;;;27.83;21.30;;;;;;;18.65;100.00;98094.13;5108753;28;20226;-67
2022/08/28 04:30:29;;;;;;;29.13;21.43;;;;;;;18.60;100.00;98104.47;5105762;28;20248;-67
2022/08/28 04:32:55;;;;;;;23.73;19.13;;;;;;;18.56;100.00;98097.75;5106940;28;20243;-67
2022/08/28 04:35:23;;;;;;;25.93;18.93;;;;;;;18.55;100.00;98098.75;5109737;28;20314;-67
2022/08/28 04:37:50;;;;;;;24.17;19.47;;;;;;;18.55;100.00;98100.59;5108806;28;20326;-67
2022/08/28 04:40:18;;;;;;;29.13;20.10;;;;;;;18.56;100.00;98100.44;5105711;28;20229;-66
2022/08/28 04:42:46;;;;;;;26.77;19.93;;;;;;;18.63;100.00;98104.16;5106815;28;20312;-66
2022/08/28 04:45:12;;;;;;;26.70;19.23;;;;;;;18.62;100.00;98102.50;5107833;28;20264;-67
2022/08/28 04:47:39;;;;;;;26.03;18.67;;;;;;;18.62;100.00;98101.63;5108777;28;20226;-67
2022/08/28 04:50:08;;;;;;;25.97;20.90;;;;;;;18.62;100.00;98109.66;5105644;28;20230;-67
2022/08/28 04:52:36;;;;;;;24.63;18.40;;;;;;;18.57;100.00;98107.47;5106837;28;20260;-67
2022/08/28 04:55:04;;;;;;;23.50;18.03;;;;;;;18.56;100.00;98103.13;5109398;28;20237;-67
2022/08/28 04:57:31;;;;;;;22.37;18.10;;;;;;;18.58;100.00;98103.78;5108497;28;20547;-67
2022/08/28 04:59:58;;;;;;;26.17;19.43;;;;;;;18.61;100.00;98111.53;5105537;28;20304;-67
2022/08/28 05:02:25;;;;;;;25.13;18.80;;;;;;;18.66;100.00;98109.19;5106765;28;20809;-67
2022/08/28 05:04:51;;;;;;;24.53;18.17;;;;;;;18.66;100.00;98109.19;5109397;28;20252;-67
2022/08/28 05:07:18;;;;;;;27.77;19.67;;;;;;;18.67;100.00;98105.53;5108914;28;20279;-67
2022/08/28 05:09:46;;;;;;;25.70;18.90;;;;;;;18.68;100.00;98123.28;5103781;28;20271;-67
2022/08/28 05:12:16;;;;;;;25.00;18.30;;;;;;;18.73;100.00;98123.66;5106278;28;20280;-67
2022/08/28 05:14:43;;;;;;;21.43;17.13;;;;;;;18.72;100.00;98119.28;5109230;28;20275;-67
2022/08/28 05:17:12;;;;;;;23.00;17.53;;;;;;;18.77;100.00;98125.00;5108617;28;20278;-67
2022/08/28 05:19:39;;;;;;;22.77;16.60;;;;;;;18.78;100.00;98128.53;5105440;28;20279;-67
2022/08/28 05:22:08;;;;;;;23.47;17.73;;;;;;;18.77;100.00;98127.69;5106755;28;20280;-67
2022/08/28 05:24:35;;;;;;;20.77;16.73;;;;;;;18.72;100.00;98124.63;5109301;28;20224;-67
2022/08/28 05:27:03;;;;;;;21.90;17.00;;;;;;;18.74;100.00;98128.00;5108195;28;20666;-67
2022/08/28 05:29:30;;;;;;;22.03;16.63;;;;;;;18.75;100.00;98129.69;5105068;28;20226;-67
2022/08/28 05:31:56;;;;;;;20.47;17.40;;;;;;;18.73;100.00;98129.00;5106673;28;20246;-67
2022/08/28 05:34:23;;;;;;;19.40;15.70;;;;;;;18.76;100.00;98136.72;5109163;28;20225;-67
2022/08/28 05:36:50;;;;;;;21.23;16.37;;;;;;;18.75;100.00;98132.38;5106718;28;20226;-67
2022/08/28 05:39:17;;;;;;;17.70;14.90;;;;;;;18.78;100.00;98134.72;5105341;28;20567;-67
2022/08/28 05:41:46;;;;;;;18.20;14.87;;;;;;;18.77;100.00;98138.41;5106489;28;20306;-67
2022/08/28 05:44:16;;;;;;;17.93;14.97;;;;;;;18.78;100.00;98139.25;5109080;28;20305;-67
2022/08/28 05:46:46;;;;;;;19.07;15.77;;;;;;;18.80;100.00;98138.09;5108013;28;20222;-67
2022/08/28 05:49:14;;;;;;;21.17;15.60;;;;;;;18.85;100.00;98135.78;5105278;28;20577;-67
2022/08/28 05:51:42;;;;;;;21.83;16.73;;;;;;;18.91;100.00;98140.50;5107118;28;20253;-67
2022/08/28 05:54:09;;;;;;;21.20;16.10;;;;;;;18.93;100.00;98143.88;5109257;28;20221;-67
2022/08/28 05:56:38;;;;;;;20.93;15.80;;;;;;;18.95;100.00;98144.53;5110987;28;20281;-67
2022/08/28 05:59:06;;;;;;;23.70;17.40;;;;;;;18.93;100.00;98149.22;5108848;28;20234;-67
2022/08/28 06:01:36;;;;;;;19.10;15.97;;;;;;;19.03;100.00;98143.75;5109366;28;20254;-67
2022/08/28 06:04:07;;;;;;;18.30;15.30;;;;;;;19.03;100.00;98144.59;5112506;28;20275;-67
2022/08/28 06:06:37;;;;;;;16.57;14.70;;;;;;;19.02;100.00;98155.47;5109722;28;20628;-67
2022/08/28 06:09:06;;;;;;;17.30;15.23;;;;;;;19.08;100.00;98152.16;5108283;28;20223;-69
2022/08/28 06:11:34;;;;;;;17.77;14.03;;;;;;;19.09;100.00;98157.34;5099633;28;20254;-67
2022/08/28 06:14:02;;;;;;;19.50;13.87;;;;;;;19.10;100.00;98153.69;5107559;28;20291;-66
2022/08/28 06:16:29;;;;;;;16.80;14.13;;;;;;;19.10;100.00;98151.03;5108867;28;20268;-66
2022/08/28 06:18:57;;;;;;;19.50;15.33;;;;;;;19.10;100.00;98151.03;5108408;28;20306;-67
2022/08/28 06:21:24;;;;;;;18.87;15.10;;;;;;;19.11;100.00;98155.38;5100701;28;20677;-66
2022/08/28 06:23:51;;;;;;;18.13;14.57;;;;;;;19.07;100.00;98150.50;5112074;28;20225;-66
2022/08/28 06:26:18;;;;;;;16.90;12.67;;;;;;;19.13;100.00;98149.88;5108795;28;20388;-66
2022/08/28 06:28:44;;;;;;;17.50;14.63;;;;;;;19.24;100.00;98149.59;5106394;28;20709;-66
2022/08/28 06:31:11;;;;;;;17.13;14.53;;;;;;;19.28;100.00;98154.50;5111663;28;20278;-66
2022/08/28 06:33:38;;;;;;;19.43;14.60;;;;;;;19.36;100.00;98156.38;5111816;28;20560;-66
2022/08/28 06:36:07;;;;;;;15.37;13.77;;;;;;;19.39;100.00;98164.09;5109084;28;20639;-66
2022/08/28 06:38:34;;;;;;;15.80;13.20;;;;;;;19.43;100.00;98168.13;5107979;28;20381;-66
2022/08/28 06:41:01;;;;;;;14.97;13.07;;;;;;;19.47;100.00;98170.34;5111389;28;20309;-67
2022/08/28 06:43:29;;;;;;;15.80;13.13;;;;;;;19.38;100.00;98175.84;5111749;28;20636;-66
2022/08/28 06:45:57;;;;;;;16.80;12.70;;;;;;;19.42;100.00;98178.03;5100967;28;20283;-66
2022/08/28 06:48:26;;;;;;;17.90;13.50;;;;;;;19.47;100.00;98178.38;5107776;28;20272;-66
2022/08/28 06:50:54;;;;;;;16.97;13.87;;;;;;;19.44;100.00;98181.38;5111483;28;20229;-66
2022/08/28 06:53:24;;;;;;;15.77;12.90;;;;;;;19.45;100.00;98183.03;5109730;28;20328;-66
2022/08/28 06:56:06;;;;;;;14.50;11.93;;;;;;;19.51;100.00;98187.78;5107918;28;20279;-66
2022/08/28 06:58:33;;;;;;;13.70;11.90;;;;;;;19.62;100.00;98179.44;5109644;28;20265;-66
2022/08/28 07:01:02;;;;;;;13.83;12.43;;;;;;;19.74;100.00;98188.06;5109689;28;20268;-65
2022/08/28 07:03:30;;;;;;;16.63;13.27;;;;;;;19.77;100.00;98188.59;5107135;28;20584;-66
2022/08/28 07:05:57;;;;;;;14.00;12.20;;;;;;;19.96;100.00;98185.63;5105249;28;20236;-66
2022/08/28 07:08:27;;;;;;;14.17;12.27;;;;;;;20.15;100.00;98190.75;5108732;28;20268;-66
2022/08/28 07:10:54;;;;;;;15.53;11.97;;;;;;;20.32;100.00;98192.47;5104836;28;20240;-66
2022/08/28 07:13:22;;;;;;;13.43;11.90;;;;;;;20.42;100.00;98190.44;5097219;28;20292;-66
2022/08/28 07:15:49;;;;;;;14.27;11.50;;;;;;;20.53;100.00;98198.19;5101235;28;20262;-66
2022/08/28 07:18:16;;;;;;;13.70;12.00;;;;;;;20.65;100.00;98196.84;5100533;28;20284;-66
2022/08/28 07:20:43;;;;;;;13.20;11.80;;;;;;;20.61;100.00;98194.69;5099074;28;20223;-66
2022/08/28 07:23:10;;;;;;;12.43;10.63;;;;;;;20.60;100.00;98206.44;5101288;28;20245;-66
2022/08/28 07:25:41;;;;;;;13.70;11.10;;;;;;;20.59;100.00;98202.91;5100355;28;20302;-66
2022/08/28 07:28:08;;;;;;;11.00;9.87;;;;;;;20.64;100.00;98205.94;5101146;28;20229;-65
2022/08/28 07:30:35;;;;;;;14.43;10.53;;;;;;;20.70;100.00;98204.41;5102871;28;20298;-67
2022/08/28 07:33:02;;;;;;;13.30;10.50;;;;;;;20.68;100.00;98212.66;5101620;28;20244;-67
2022/08/28 07:35:29;;;;;;;12.37;10.77;;;;;;;20.73;100.00;98214.84;5100805;28;20279;-67
2022/08/28 07:37:56;;;;;;;12.97;11.13;;;;;;;20.66;100.00;98206.59;5101028;28;20254;-67
2022/08/28 07:40:22;;;;;;;13.53;11.23;;;;;;;20.57;100.00;98214.81;5101393;28;20235;-67
2022/08/28 07:45:35;;;;;;;12.43;11.13;;;;;;;20.48;100.00;98222.00;5087768;28;20260;-66
2022/08/28 07:48:04;;;;;;;13.37;11.67;;;;;;;20.39;100.00;98227.53;5099743;28;20226;-67
2022/08/28 07:50:31;;;;;;;12.17;10.67;;;;;;;20.28;100.00;98226.00;5096972;28;20265;-67
2022/08/28 07:52:58;;;;;;;13.07;11.33;;;;;;;20.29;100.00;98221.47;5100602;28;20246;-66
2022/08/28 07:55:26;;;;;;;11.97;9.90;;;;;;;20.30;100.00;98223.97;5099829;28;20219;-65
2022/08/28 07:57:54;;;;;;;11.93;10.73;;;;;;;20.43;100.00;98229.72;5100627;28;20272;-65
2022/08/28 08:00:21;;;;;;;12.83;10.77;;;;;;;20.50;100.00;98230.75;5103522;28;20236;-66
2022/08/28 08:02:48;;;;;;;14.37;11.43;;;;;;;20.48;100.00;98232.75;5099146;28;20222;-66
2022/08/28 08:05:15;;;;;;;15.03;12.20;;;;;;;20.48;100.00;98227.38;5100360;28;20269;-66
2022/08/28 08:07:41;;;;;;;12.60;11.27;;;;;;;20.51;100.00;98231.56;5100192;28;20230;-66
2022/08/28 08:10:13;;;;;;;14.30;11.97;;;;;;;20.69;100.00;98235.81;5104558;28;20262;-66
2022/08/28 08:12:41;;;;;;;14.13;11.53;;;;;;;20.96;100.00;98232.00;5099378;28;20248;-66
2022/08/28 08:15:10;;;;;;;11.37;10.23;;;;;;;21.09;100.00;98232.34;5097331;28;20230;-66
2022/08/28 08:17:37;;;;;;;14.27;11.13;;;;;;;21.14;100.00;98236.19;5101265;28;20258;-66
2022/08/28 08:20:05;;;;;;;12.00;10.20;;;;;;;21.30;100.00;98244.25;5099997;28;20693;-66
2022/08/28 08:22:32;;;;;;;13.03;10.87;;;;;;;21.36;100.00;98254.31;5097167;28;20520;-66
2022/08/28 08:24:59;;;;;;;14.07;11.00;;;;;;;21.32;100.00;98241.34;5100926;28;20264;-67
2022/08/28 08:27:26;;;;;;;11.87;10.47;;;;;;;21.31;100.00;98251.28;5099438;28;20226;-67
2022/08/28 08:29:53;;;;;;;11.27;9.93;;;;;;;21.45;100.00;98261.34;5103899;28;20229;-67
2022/08/28 08:32:21;;;;;;;11.87;10.63;;;;;;;21.63;100.00;98255.78;5100823;28;20272;-67
2022/08/28 08:34:48;;;;;;;12.73;10.07;;;;;;;21.69;98.45;98264.03;5100786;28;20245;-67
2022/08/28 08:37:15;;;;;;;10.50;9.10;;;;;;;21.83;99.01;98259.78;5100927;28;20258;-66
2022/08/28 08:39:42;;;;;;;12.87;10.47;;;;;;;22.01;96.85;98263.09;5102308;28;20222;-67
2022/08/28 08:42:20;;;;;;;11.40;10.03;;;;;;;22.06;97.97;98264.22;5100639;28;20262;-67
2022/08/28 08:44:48;;;;;;;11.63;10.33;;;;;;;22.26;97.23;98262.78;5100696;28;20225;-66
2022/08/28 08:47:21;;;;;;;11.37;9.67;;;;;;;22.53;94.86;98264.19;5102217;28;20625;-66
2022/08/28 08:49:52;;;;;;;13.10;10.37;;;;;;;22.58;91.82;98261.81;5101799;28;20229;-66
2022/08/28 08:52:30;;;;;;;10.37;8.80;;;;;;;22.72;91.37;98274.53;5100745;28;20281;-66
2022/08/28 08:55:20;;;;;;;10.80;9.33;;;;;;;23.00;90.38;98263.06;5100844;28;20304;-66
2022/08/28 08:57:53;;;;;;;10.97;9.73;;;;;;;23.14;89.68;98261.41;5092696;28;20624;-66
2022/08/28 09:00:20;;;;;;;12.43;9.17;;;;;;;23.17;89.91;98269.19;5088781;28;20283;-67
2022/08/28 09:02:54;;;;;;;10.10;8.23;;;;;;;23.29;87.57;98268.53;5100561;28;20374;-66
2022/08/28 09:05:26;;;;;;;12.93;9.97;;;;;;;23.59;87.54;98269.47;5096073;28;20669;-67
2022/08/28 09:07:56;;;;;;;14.23;9.20;;;;;;;23.72;86.42;98285.84;5100520;28;20271;-67
2022/08/28 09:10:24;;;;;;;10.50;9.03;;;;;;;23.60;84.71;98277.34;5100474;28;20301;-66
2022/08/28 09:13:00;;;;;;;8.90;8.00;;;;;;;23.49;87.34;98280.53;5102290;28;20279;-67
2022/08/28 09:15:32;;;;;;;11.73;8.83;;;;;;;23.67;86.82;98283.72;5100808;28;20291;-67
2022/08/28 09:18:10;;;;;;;9.10;8.07;;;;;;;23.92;86.20;98276.22;5088270;28;20498;-67
2022/08/28 09:20:38;;;;;;;7.90;7.20;;;;;;;24.15;84.33;98276.97;5100318;28;20222;-66
2022/08/28 09:23:05;;;;;;;8.27;7.47;;;;;;;24.38;81.98;98281.22;5100288;28;20275;-67
2022/08/28 09:25:52;;;;;;;11.23;7.80;;;;;;;24.51;80.03;98278.66;5100215;28;20272;-66
2022/08/28 09:28:23;;;;;;;9.30;7.93;;;;;;;24.80;80.52;98278.63;5100236;28;20595;-66
2022/08/28 09:31:00;;;;;;;9.20;8.30;;;;;;;24.71;79.25;98285.19;5098263;28;20228;-67
2022/08/28 09:33:39;;;;;;;8.80;7.40;;;;;;;24.56;79.72;98278.94;5103957;28;20242;-67
2022/08/28 09:36:28;;;;;;;9.30;8.40;;;;;;;24.15;78.72;98283.19;5104142;28;20589;-66
2022/08/28 09:39:10;;;;;;;10.40;9.20;;;;;;;23.94;80.35;98293.91;5102445;28;20222;-66
2022/08/28 09:44:26;;;;;;;10.00;8.73;;;;;;;23.60;83.77;98292.72;5103188;28;20629;-66
2022/08/28 09:46:53;;;;;;;8.93;8.03;;;;;;;23.57;84.21;98288.53;5104352;28;20226;-66
2022/08/28 09:49:26;;;;;;;10.03;8.30;;;;;;;23.48;84.92;98283.41;5103782;28;20223;-66
2022/08/28 09:51:55;;;;;;;10.10;8.20;;;;;;;23.58;83.58;98289.38;5103658;28;20332;-66
2022/08/28 09:54:29;;;;;;;9.90;8.90;;;;;;;23.52;83.25;98280.13;5107460;28;20354;-67
2022/08/28 09:56:56;;;;;;;8.80;7.90;;;;;;;23.57;83.29;98283.13;5095250;28;20275;-66
2022/08/28 09:59:25;;;;;;;9.90;8.90;;;;;;;23.81;80.26;98280.19;5103623;28;20227;-67
2022/08/28 10:02:04;;;;;;;11.70;8.80;;;;;;;24.02;80.38;98291.09;5102739;28;20222;-67
2022/08/28 10:04:45;;;;;;;8.57;7.77;;;;;;;24.49;80.12;98288.84;5102306;28;20256;-66
2022/08/28 10:07:19;;;;;;;8.77;7.90;;;;;;;24.87;78.42;98289.53;5087098;28;20287;-67
2022/08/28 10:09:54;;;;;;;9.50;8.37;;;;;;;24.86;75.18;98287.88;5103380;28;20258;-67
2022/08/28 10:12:33;;;;;;;8.73;7.93;;;;;;;24.60;75.66;98282.97;5104839;28;20552;-67
2022/08/28 10:15:08;;;;;;;8.43;7.50;;;;;;;24.39;79.54;98287.47;5103346;28;20285;-68
2022/08/28 10:17:42;;;;;;;8.70;7.53;;;;;;;24.16;81.21;98284.88;5103805;28;20283;-67
2022/08/28 10:20:17;;;;;;;9.10;8.13;;;;;;;23.68;80.43;98290.78;5101248;28;20238;-66
2022/08/28 10:22:52;;;;;;;9.30;7.83;;;;;;;23.42;84.24;98279.56;5097620;28;20226;-66
2022/08/28 10:25:26;;;;;;;9.13;7.83;;;;;;;23.58;85.22;98284.00;5103107;28;20230;-67
2022/08/28 10:28:22;;;;;;;10.47;9.37;;;;;;;23.84;81.47;98284.38;5099985;28;20257;-66
2022/08/28 10:30:58;;;;;;;7.90;7.07;;;;;;;24.15;80.34;98282.38;5091408;28;20287;-66
2022/08/28 10:33:36;;;;;;;7.53;6.83;;;;;;;24.59;78.16;98275.91;5104140;28;20238;-66
2022/08/28 10:36:09;;;;;;;8.47;6.70;;;;;;;25.11;77.54;98279.16;5103629;28;20343;-66
2022/08/28 10:38:40;;;;;;;8.17;7.27;;;;;;;25.49;74.28;98283.28;5090716;28;20226;-67
2022/08/28 10:41:12;;;;;;;7.40;6.63;;;;;;;25.61;72.49;98279.00;5102574;28;20226;-66
2022/08/28 10:43:44;;;;;;;9.10;7.33;;;;;;;25.90;70.50;98278.03;5100026;28;20222;-66
2022/08/28 10:46:14;;;;;;;8.40;6.83;;;;;;;25.93;68.36;98273.03;5102782;28;20226;-67
2022/08/28 10:48:46;;;;;;;7.17;6.47;;;;;;;26.02;66.71;98271.81;5101100;28;20223;-67
2022/08/28 10:51:20;;;;;;;8.03;7.13;;;;;;;26.07;66.57;98285.63;5104758;28;20655;-67
2022/08/28 10:53:53;;;;;;;6.57;5.97;;;;;;;26.05;67.57;98281.44;5102905;28;20243;-67
2022/08/28 10:56:24;;;;;;;9.37;7.43;;;;;;;25.72;68.31;98281.19;5090637;28;20222;-67
2022/08/28 10:58:58;;;;;;;8.07;7.10;;;;;;;25.49;70.35;98275.16;5098818;28;20635;-67
2022/08/28 11:01:29;;;;;;;7.80;7.07;;;;;;;25.27;71.01;98278.94;5104651;28;20748;-67
2022/08/28 11:03:58;;;;;;;7.17;6.50;;;;;;;25.07;74.19;98283.31;5102381;28;20652;-67
2022/08/28 11:06:33;;;;;;;8.87;7.70;;;;;;;24.77;71.96;98283.59;5102413;28;20230;-67
2022/08/28 11:11:49;;;;;;;14.40;8.50;;;;;;;24.84;73.88;98277.22;5095978;28;20306;-66
2022/08/28 11:14:33;;;;;;;7.37;6.50;;;;;;;25.01;72.47;98284.06;5100280;28;20285;-67
2022/08/28 11:17:02;;;;;;;7.63;6.83;;;;;;;25.05;71.26;98281.81;5092736;28;20268;-67
2022/08/28 11:20:09;;;;;;;7.57;6.87;;;;;;;24.93;73.32;98283.34;5102120;28;20522;-67
2022/08/28 11:22:40;;;;;;;8.50;7.70;;;;;;;24.72;73.67;98276.06;5099747;28;20222;-67
2022/08/28 11:25:18;;;;;;;9.13;8.13;;;;;;;24.27;75.79;98280.88;5103545;28;20226;-67
2022/08/28 11:28:17;;;;;;;9.97;7.40;;;;;;;24.11;78.07;98281.91;5101930;28;20222;-67
2022/08/28 11:30:45;;;;;;;9.13;8.13;;;;;;;23.96;79.95;98283.75;5098000;28;20318;-67
2022/08/28 11:33:36;;;;;;;8.43;7.63;;;;;;;23.93;79.10;98288.69;5101766;28;20273;-67